sensor_id;sensor_type;location;lat;lon;timestamp;pressure;altitude;pressure_sealevel;temperature;humidity
46534;BME280;32260;52.008;4.752;2023-07-13T00:00:47;101418.41;;;20.49;60.70
46534;BME280;32260;52.008;4.752;2023-07-13T00:03:13;101423.59;;;20.52;60.37
46534;BME280;32260;52.008;4.752;2023-07-13T00:05:40;101420.13;;;20.50;60.56
46534;BME280;32260;52.008;4.752;2023-07-13T00:08:07;101425.66;;;20.47;60.94
46534;BME280;32260;52.008;4.752;2023-07-13T00:10:38;101421.50;;;20.41;60.79
46534;BME280;32260;52.008;4.752;2023-07-13T00:13:04;101424.41;;;20.36;60.64
46534;BME280;32260;52.008;4.752;2023-07-13T00:15:30;101419.88;;;20.37;60.23
46534;BME280;32260;52.008;4.752;2023-07-13T00:17:57;101419.66;;;20.24;61.45
46534;BME280;32260;52.008;4.752;2023-07-13T00:20:25;101419.66;;;20.24;61.51
46534;BME280;32260;52.008;4.752;2023-07-13T00:22:52;101407.16;;;20.23;61.22
46534;BME280;32260;52.008;4.752;2023-07-13T00:25:21;101414.44;;;20.21;61.38
46534;BME280;32260;52.008;4.752;2023-07-13T00:27:48;101415.22;;;20.23;60.92
46534;BME280;32260;52.008;4.752;2023-07-13T00:30:15;101416.03;;;20.25;60.56
46534;BME280;32260;52.008;4.752;2023-07-13T00:32:41;101423.16;;;20.26;61.20
46534;BME280;32260;52.008;4.752;2023-07-13T00:35:08;101416.81;;;20.27;61.26
46534;BME280;32260;52.008;4.752;2023-07-13T00:37:34;101416.09;;;20.24;61.35
46534;BME280;32260;52.008;4.752;2023-07-13T00:40:03;101416.88;;;20.26;61.28
46534;BME280;32260;52.008;4.752;2023-07-13T00:42:30;101424.16;;;20.24;61.06
46534;BME280;32260;52.008;4.752;2023-07-13T00:47:49;101417.09;;;20.39;60.70
46534;BME280;32260;52.008;4.752;2023-07-13T00:50:16;101424.25;;;20.40;60.57
46534;BME280;32260;52.008;4.752;2023-07-13T00:52:46;101422.44;;;20.40;60.32
46534;BME280;32260;52.008;4.752;2023-07-13T00:55:14;101420.47;;;20.44;60.13
46534;BME280;32260;52.008;4.752;2023-07-13T01:00:17;101426.94;;;20.40;59.97
46534;BME280;32260;52.008;4.752;2023-07-13T01:02:52;101425.28;;;20.37;60.44
46534;BME280;32260;52.008;4.752;2023-07-13T01:05:20;101429.00;;;20.34;59.99
46534;BME280;32260;52.008;4.752;2023-07-13T01:07:49;101423.16;;;20.26;60.88
46534;BME280;32260;52.008;4.752;2023-07-13T01:10:24;101428.69;;;20.23;60.69
46534;BME280;32260;52.008;4.752;2023-07-13T01:13:06;101434.38;;;20.17;60.70
46534;BME280;32260;52.008;4.752;2023-07-13T01:15:42;101439.03;;;20.13;61.65
46534;BME280;32260;52.008;4.752;2023-07-13T01:18:15;101435.09;;;20.03;62.10
46534;BME280;32260;52.008;4.752;2023-07-13T01:20:53;101432.63;;;19.98;62.54
46534;BME280;32260;52.008;4.752;2023-07-13T01:23:20;101441.22;;;19.87;63.10
46534;BME280;32260;52.008;4.752;2023-07-13T01:26:08;101440.91;;;19.94;62.38
46534;BME280;32260;52.008;4.752;2023-07-13T01:28:34;101439.69;;;19.82;63.21
46534;BME280;32260;52.008;4.752;2023-07-13T01:31:03;101435.47;;;19.76;63.65
46534;BME280;32260;52.008;4.752;2023-07-13T01:33:46;101436.09;;;19.83;63.20
46534;BME280;32260;52.008;4.752;2023-07-13T01:36:12;101442.03;;;19.70;63.75
46534;BME280;32260;52.008;4.752;2023-07-13T01:38:39;101456.53;;;19.66;63.58
46534;BME280;32260;52.008;4.752;2023-07-13T01:41:11;101456.19;;;19.55;64.15
46534;BME280;32260;52.008;4.752;2023-07-13T01:43:38;101453.16;;;19.63;63.10
46534;BME280;32260;52.008;4.752;2023-07-13T01:46:04;101449.44;;;19.46;63.06
46534;BME280;32260;52.008;4.752;2023-07-13T01:48:40;101457.75;;;19.42;63.71
46534;BME280;32260;52.008;4.752;2023-07-13T01:51:09;101461.66;;;19.34;63.35
46534;BME280;32260;52.008;4.752;2023-07-13T01:53:36;101459.19;;;19.30;63.07
46534;BME280;32260;52.008;4.752;2023-07-13T01:56:02;101471.13;;;19.24;63.84
46534;BME280;32260;52.008;4.752;2023-07-13T01:58:28;101469.38;;;19.23;63.36
46534;BME280;32260;52.008;4.752;2023-07-13T02:00:54;101470.13;;;19.25;63.45
46534;BME280;32260;52.008;4.752;2023-07-13T02:03:21;101470.00;;;19.28;63.52
46534;BME280;32260;52.008;4.752;2023-07-13T02:05:47;101469.38;;;19.23;64.74
46534;BME280;32260;52.008;4.752;2023-07-13T02:08:13;101472.78;;;19.27;64.75
46534;BME280;32260;52.008;4.752;2023-07-13T02:10:39;101470.75;;;19.32;64.70
46534;BME280;32260;52.008;4.752;2023-07-13T02:13:07;101471.31;;;19.38;64.06
46534;BME280;32260;52.008;4.752;2023-07-13T02:15:33;101470.38;;;19.39;64.00
46534;BME280;32260;52.008;4.752;2023-07-13T02:17:59;101467.69;;;19.39;64.12
46534;BME280;32260;52.008;4.752;2023-07-13T02:20:26;101467.91;;;19.35;64.03
46534;BME280;32260;52.008;4.752;2023-07-13T02:22:52;101470.66;;;19.33;63.66
46534;BME280;32260;52.008;4.752;2023-07-13T02:25:19;101462.97;;;19.26;64.33
46534;BME280;32260;52.008;4.752;2023-07-13T02:27:45;101462.97;;;19.26;64.37
46534;BME280;32260;52.008;4.752;2023-07-13T02:30:13;101460.50;;;19.21;64.08
46534;BME280;32260;52.008;4.752;2023-07-13T02:32:40;101471.53;;;19.15;64.43
46534;BME280;32260;52.008;4.752;2023-07-13T02:35:06;101469.78;;;19.14;64.02
46534;BME280;32260;52.008;4.752;2023-07-13T02:37:32;101469.94;;;19.11;64.23
46534;BME280;32260;52.008;4.752;2023-07-13T02:39:58;101464.84;;;19.04;64.11
46534;BME280;32260;52.008;4.752;2023-07-13T02:42:25;101468.59;;;19.00;63.82
46534;BME280;32260;52.008;4.752;2023-07-13T02:44:51;101469.75;;;18.95;63.65
46534;BME280;32260;52.008;4.752;2023-07-13T02:47:17;101467.22;;;18.90;63.99
46534;BME280;32260;52.008;4.752;2023-07-13T02:49:44;101474.63;;;18.85;63.37
46534;BME280;32260;52.008;4.752;2023-07-13T02:52:10;101470.19;;;18.84;63.84
46534;BME280;32260;52.008;4.752;2023-07-13T02:54:36;101473.09;;;18.79;64.01
46534;BME280;32260;52.008;4.752;2023-07-13T02:57:02;101473.97;;;18.80;63.75
46534;BME280;32260;52.008;4.752;2023-07-13T02:59:29;101465.97;;;18.78;63.73
46534;BME280;32260;52.008;4.752;2023-07-13T03:01:55;101475.03;;;18.75;64.15
46534;BME280;32260;52.008;4.752;2023-07-13T03:04:21;101478.59;;;18.76;63.92
46534;BME280;32260;52.008;4.752;2023-07-13T03:06:47;101473.41;;;18.71;64.41
46534;BME280;32260;52.008;4.752;2023-07-13T03:09:14;101476.09;;;18.71;64.33
46534;BME280;32260;52.008;4.752;2023-07-13T03:11:40;101473.56;;;18.68;64.67
46534;BME280;32260;52.008;4.752;2023-07-13T03:14:07;101475.31;;;18.69;64.35
46534;BME280;32260;52.008;4.752;2023-07-13T03:16:34;101473.69;;;18.65;64.12
46534;BME280;32260;52.008;4.752;2023-07-13T03:19:00;101477.34;;;18.64;64.17
46534;BME280;32260;52.008;4.752;2023-07-13T03:21:26;101475.63;;;18.62;64.73
46534;BME280;32260;52.008;4.752;2023-07-13T03:23:52;101473.03;;;18.60;64.95
46534;BME280;32260;52.008;4.752;2023-07-13T03:26:20;101468.59;;;18.59;64.69
46534;BME280;32260;52.008;4.752;2023-07-13T03:28:47;101479.47;;;18.56;64.44
46534;BME280;32260;52.008;4.752;2023-07-13T03:31:16;101483.09;;;18.55;65.65
46534;BME280;32260;52.008;4.752;2023-07-13T03:33:43;101487.63;;;18.53;65.70
46534;BME280;32260;52.008;4.752;2023-07-13T03:36:13;101486.84;;;18.51;65.63
46534;BME280;32260;52.008;4.752;2023-07-13T03:38:42;101481.59;;;18.48;65.49
46534;BME280;32260;52.008;4.752;2023-07-13T03:41:08;101488.78;;;18.47;66.09
46534;BME280;32260;52.008;4.752;2023-07-13T03:43:34;101488.72;;;18.49;66.34
46534;BME280;32260;52.008;4.752;2023-07-13T03:46:00;101485.97;;;18.50;65.54
46534;BME280;32260;52.008;4.752;2023-07-13T03:48:26;101486.03;;;18.49;66.59
46534;BME280;32260;52.008;4.752;2023-07-13T03:50:53;101493.25;;;18.47;67.02
46534;BME280;32260;52.008;4.752;2023-07-13T03:53:19;101490.53;;;18.48;65.87
46534;BME280;32260;52.008;4.752;2023-07-13T03:55:45;101493.34;;;18.45;67.50
46534;BME280;32260;52.008;4.752;2023-07-13T03:58:30;101489.47;;;18.52;66.88
46534;BME280;32260;52.008;4.752;2023-07-13T04:00:57;101494.34;;;18.42;67.00
46534;BME280;32260;52.008;4.752;2023-07-13T04:03:24;101503.22;;;18.45;67.48
46534;BME280;32260;52.008;4.752;2023-07-13T04:05:50;101505.91;;;18.45;67.42
46534;BME280;32260;52.008;4.752;2023-07-13T04:08:17;101508.59;;;18.45;68.01
46534;BME280;32260;52.008;4.752;2023-07-13T04:10:43;101506.84;;;18.43;68.14
46534;BME280;32260;52.008;4.752;2023-07-13T04:13:09;101504.91;;;18.47;67.88
46534;BME280;32260;52.008;4.752;2023-07-13T04:15:36;101508.31;;;18.51;67.83
46534;BME280;32260;52.008;4.752;2023-07-13T04:18:02;101515.44;;;18.52;68.56
46534;BME280;32260;52.008;4.752;2023-07-13T04:20:29;101513.53;;;18.54;67.98
46534;BME280;32260;52.008;4.752;2023-07-13T04:22:56;101510.78;;;18.55;68.74
46534;BME280;32260;52.008;4.752;2023-07-13T04:25:23;101517.03;;;18.56;68.70
46534;BME280;32260;52.008;4.752;2023-07-13T04:27:50;101518.78;;;18.57;67.87
46534;BME280;32260;52.008;4.752;2023-07-13T04:30:16;101518.78;;;18.57;68.69
46534;BME280;32260;52.008;4.752;2023-07-13T04:32:43;101528.44;;;18.61;67.97
46534;BME280;32260;52.008;4.752;2023-07-13T04:35:09;101529.03;;;18.68;68.61
46534;BME280;32260;52.008;4.752;2023-07-13T04:37:35;101523.56;;;18.71;67.94
46534;BME280;32260;52.008;4.752;2023-07-13T04:40:02;101522.47;;;18.75;68.20
46534;BME280;32260;52.008;4.752;2023-07-13T04:42:29;101528.75;;;18.75;68.48
46534;BME280;32260;52.008;4.752;2023-07-13T04:44:56;101534.84;;;18.79;68.67
46534;BME280;32260;52.008;4.752;2023-07-13T04:47:22;101529.41;;;18.81;68.57
46534;BME280;32260;52.008;4.752;2023-07-13T04:49:48;101538.31;;;18.81;69.34
46534;BME280;32260;52.008;4.752;2023-07-13T04:52:14;101540.81;;;18.86;68.75
46534;BME280;32260;52.008;4.752;2023-07-13T04:54:40;101537.13;;;18.88;69.32
46534;BME280;32260;52.008;4.752;2023-07-13T04:57:07;101527.22;;;18.90;68.88
46534;BME280;32260;52.008;4.752;2023-07-13T04:59:34;101534.28;;;18.93;68.94
46534;BME280;32260;52.008;4.752;2023-07-13T05:02:00;101536.97;;;18.93;69.43
46534;BME280;32260;52.008;4.752;2023-07-13T05:04:27;101533.34;;;18.94;69.17
46534;BME280;32260;52.008;4.752;2023-07-13T05:06:53;101534.94;;;18.98;68.33
46534;BME280;32260;52.008;4.752;2023-07-13T05:09:19;101538.34;;;19.02;68.34
46534;BME280;32260;52.008;4.752;2023-07-13T05:11:45;101543.78;;;19.00;67.78
46534;BME280;32260;52.008;4.752;2023-07-13T05:14:12;101544.41;;;19.07;67.95
46534;BME280;32260;52.008;4.752;2023-07-13T05:16:38;101553.25;;;19.09;68.93
46534;BME280;32260;52.008;4.752;2023-07-13T05:19:04;101552.31;;;19.10;68.52
46534;BME280;32260;52.008;4.752;2023-07-13T05:21:30;101552.91;;;19.17;69.17
46534;BME280;32260;52.008;4.752;2023-07-13T05:23:57;101553.44;;;19.25;68.85
46534;BME280;32260;52.008;4.752;2023-07-13T05:26:23;101560.28;;;19.32;68.70
46534;BME280;32260;52.008;4.752;2023-07-13T05:28:49;101562.56;;;19.42;69.08
46534;BME280;32260;52.008;4.752;2023-07-13T05:31:15;101559.34;;;19.33;69.78
46534;BME280;32260;52.008;4.752;2023-07-13T05:33:41;101560.16;;;19.54;69.04
46534;BME280;32260;52.008;4.752;2023-07-13T05:36:08;101564.06;;;19.66;68.68
46534;BME280;32260;52.008;4.752;2023-07-13T05:38:34;101556.25;;;19.81;68.99
46534;BME280;32260;52.008;4.752;2023-07-13T05:41:00;101558.31;;;19.95;68.10
46534;BME280;32260;52.008;4.752;2023-07-13T05:43:26;101555.09;;;20.06;67.57
46534;BME280;32260;52.008;4.752;2023-07-13T05:45:54;101563.09;;;20.07;67.69
46534;BME280;32260;52.008;4.752;2023-07-13T05:48:20;101571.38;;;20.22;67.26
46534;BME280;32260;52.008;4.752;2023-07-13T05:50:46;101578.88;;;20.32;66.69
46534;BME280;32260;52.008;4.752;2023-07-13T05:53:14;101580.50;;;20.36;66.75
46534;BME280;32260;52.008;4.752;2023-07-13T05:55:44;101571.31;;;20.41;66.61
46534;BME280;32260;52.008;4.752;2023-07-13T05:58:13;101570.22;;;20.45;66.54
46534;BME280;32260;52.008;4.752;2023-07-13T06:00:40;101568.25;;;20.48;66.51
46534;BME280;32260;52.008;4.752;2023-07-13T06:03:07;101575.06;;;20.56;66.18
46534;BME280;32260;52.008;4.752;2023-07-13T06:05:34;101588.44;;;20.57;65.96
46534;BME280;32260;52.008;4.752;2023-07-13T06:08:00;101576.50;;;20.63;65.54
46534;BME280;32260;52.008;4.752;2023-07-13T06:10:26;101585.78;;;20.75;65.59
46534;BME280;32260;52.008;4.752;2023-07-13T06:12:53;101584.22;;;20.88;65.42
46534;BME280;32260;52.008;4.752;2023-07-13T06:15:19;101585.44;;;20.82;65.07
46534;BME280;32260;52.008;4.752;2023-07-13T06:17:45;101596.50;;;20.94;65.16
46534;BME280;32260;52.008;4.752;2023-07-13T06:20:12;101592.78;;;20.96;65.96
46534;BME280;32260;52.008;4.752;2023-07-13T06:22:38;101600.69;;;20.82;65.83
46534;BME280;32260;52.008;4.752;2023-07-13T06:25:05;101625.28;;;20.57;62.97
46534;BME280;32260;52.008;4.752;2023-07-13T06:27:31;101614.69;;;20.34;63.10
46534;BME280;32260;52.008;4.752;2023-07-13T06:29:57;101625.59;;;20.12;62.93
46534;BME280;32260;52.008;4.752;2023-07-13T06:32:23;101620.97;;;19.97;63.88
46534;BME280;32260;52.008;4.752;2023-07-13T06:34:49;101626.06;;;19.84;64.10
46534;BME280;32260;52.008;4.752;2023-07-13T06:37:18;101621.72;;;19.80;64.32
46534;BME280;32260;52.008;4.752;2023-07-13T06:39:44;101613.81;;;19.77;65.04
46534;BME280;32260;52.008;4.752;2023-07-13T06:42:10;101624.78;;;19.72;67.70
46534;BME280;32260;52.008;4.752;2023-07-13T06:44:37;101626.59;;;19.71;68.13
46534;BME280;32260;52.008;4.752;2023-07-13T06:47:03;101633.84;;;19.69;68.66
46534;BME280;32260;52.008;4.752;2023-07-13T06:49:30;101625.78;;;19.69;68.41
46534;BME280;32260;52.008;4.752;2023-07-13T06:51:56;101639.81;;;19.76;68.69
46534;BME280;32260;52.008;4.752;2023-07-13T06:54:22;101636.19;;;19.77;67.14
46534;BME280;32260;52.008;4.752;2023-07-13T06:56:48;101634.59;;;19.73;65.59
46534;BME280;32260;52.008;4.752;2023-07-13T06:59:15;101642.84;;;19.68;65.25
46534;BME280;32260;52.008;4.752;2023-07-13T07:01:41;101636.00;;;19.61;65.01
46534;BME280;32260;52.008;4.752;2023-07-13T07:04:07;101629.22;;;19.52;65.74
46534;BME280;32260;52.008;4.752;2023-07-13T07:06:33;101633.66;;;19.53;66.33
46534;BME280;32260;52.008;4.752;2023-07-13T07:08:59;101631.72;;;19.57;66.59
46534;BME280;32260;52.008;4.752;2023-07-13T07:11:26;101634.28;;;19.60;66.69
46534;BME280;32260;52.008;4.752;2023-07-13T07:13:53;101636.81;;;19.63;67.51
46534;BME280;32260;52.008;4.752;2023-07-13T07:16:20;101630.63;;;19.61;67.58
46534;BME280;32260;52.008;4.752;2023-07-13T07:18:47;101635.88;;;19.64;68.22
46534;BME280;32260;52.008;4.752;2023-07-13T07:21:14;101624.84;;;19.70;67.79
46534;BME280;32260;52.008;4.752;2023-07-13T07:23:41;101635.94;;;19.83;68.59
46534;BME280;32260;52.008;4.752;2023-07-13T07:26:08;101640.75;;;19.96;68.56
46534;BME280;32260;52.008;4.752;2023-07-13T07:28:36;101639.50;;;20.03;69.19
46534;BME280;32260;52.008;4.752;2023-07-13T07:31:02;101652.38;;;20.15;68.44
46534;BME280;32260;52.008;4.752;2023-07-13T07:33:28;101651.94;;;20.25;67.81
46534;BME280;32260;52.008;4.752;2023-07-13T07:35:54;101644.28;;;20.34;68.44
46534;BME280;32260;52.008;4.752;2023-07-13T07:38:21;101657.00;;;20.50;68.26
46534;BME280;32260;52.008;4.752;2023-07-13T07:40:47;101646.59;;;20.61;67.79
46534;BME280;32260;52.008;4.752;2023-07-13T07:43:13;101643.16;;;20.77;67.26
46534;BME280;32260;52.008;4.752;2023-07-13T07:45:40;101624.63;;;20.88;67.14
46534;BME280;32260;52.008;4.752;2023-07-13T07:48:07;101633.50;;;20.90;65.74
46534;BME280;32260;52.008;4.752;2023-07-13T07:50:35;101652.16;;;20.76;64.73
46534;BME280;32260;52.008;4.752;2023-07-13T07:53:02;101658.78;;;20.68;65.03
46534;BME280;32260;52.008;4.752;2023-07-13T07:55:29;101661.97;;;20.40;63.32
46534;BME280;32260;52.008;4.752;2023-07-13T07:57:57;101669.91;;;20.24;63.19
46534;BME280;32260;52.008;4.752;2023-07-13T08:00:23;101666.22;;;20.08;63.32
46534;BME280;32260;52.008;4.752;2023-07-13T08:02:49;101669.50;;;19.94;63.63
46534;BME280;32260;52.008;4.752;2023-07-13T08:05:15;101668.38;;;19.79;64.04
46534;BME280;32260;52.008;4.752;2023-07-13T08:07:41;101665.69;;;19.79;64.57
46534;BME280;32260;52.008;4.752;2023-07-13T08:10:08;101665.16;;;19.91;65.03
46534;BME280;32260;52.008;4.752;2023-07-13T08:12:36;101659.94;;;19.88;65.67
46534;BME280;32260;52.008;4.752;2023-07-13T08:15:02;101666.91;;;19.92;66.21
46534;BME280;32260;52.008;4.752;2023-07-13T08:17:28;101666.41;;;19.84;66.27
46534;BME280;32260;52.008;4.752;2023-07-13T08:19:55;101664.09;;;19.75;67.18
46534;BME280;32260;52.008;4.752;2023-07-13T08:22:21;101662.50;;;19.70;67.52
46534;BME280;32260;52.008;4.752;2023-07-13T08:24:48;101667.59;;;19.77;68.45
46534;BME280;32260;52.008;4.752;2023-07-13T08:27:22;101655.66;;;19.82;69.04
46534;BME280;32260;52.008;4.752;2023-07-13T08:29:49;101667.91;;;20.09;69.25
46534;BME280;32260;52.008;4.752;2023-07-13T08:32:16;101668.97;;;20.25;68.63
46534;BME280;32260;52.008;4.752;2023-07-13T08:34:44;101660.44;;;20.34;67.56
46534;BME280;32260;52.008;4.752;2023-07-13T08:37:10;101655.94;;;20.35;66.94
46534;BME280;32260;52.008;4.752;2023-07-13T08:39:36;101657.00;;;20.50;66.88
46534;BME280;32260;52.008;4.752;2023-07-13T08:42:54;101657.84;;;20.69;66.57
46534;BME280;32260;52.008;4.752;2023-07-13T08:47:31;101667.28;;;20.97;63.26
46534;BME280;32260;52.008;4.752;2023-07-13T08:49:59;101659.81;;;21.03;62.95
46534;BME280;32260;52.008;4.752;2023-07-13T08:52:32;101652.50;;;21.05;63.33
46534;BME280;32260;52.008;4.752;2023-07-13T08:55:16;101667.72;;;20.88;62.81
46534;BME280;32260;52.008;4.752;2023-07-13T08:57:45;101669.06;;;20.79;63.43
46534;BME280;32260;52.008;4.752;2023-07-13T09:00:13;101669.19;;;20.57;63.25
46534;BME280;32260;52.008;4.752;2023-07-13T09:02:58;101673.50;;;20.42;63.31
46534;BME280;32260;52.008;4.752;2023-07-13T09:16:22;101692.03;;;19.91;67.62
46534;BME280;32260;52.008;4.752;2023-07-13T09:18:51;101686.25;;;20.00;68.28
46534;BME280;32260;52.008;4.752;2023-07-13T09:21:24;101689.13;;;20.16;68.35
46534;BME280;32260;52.008;4.752;2023-07-13T09:23:56;101685.38;;;20.38;70.19
46534;BME280;32260;52.008;4.752;2023-07-13T09:26:29;101688.41;;;20.68;70.52
46534;BME280;32260;52.008;4.752;2023-07-13T09:29:03;101685.41;;;20.94;70.41
46534;BME280;32260;52.008;4.752;2023-07-13T09:31:42;101681.69;;;21.14;67.84
46534;BME280;32260;52.008;4.752;2023-07-13T09:34:11;101698.31;;;21.05;63.04
46534;BME280;32260;52.008;4.752;2023-07-13T09:36:38;101694.94;;;21.01;62.66
46534;BME280;32260;52.008;4.752;2023-07-13T09:39:16;101707.91;;;20.93;61.96
46534;BME280;32260;52.008;4.752;2023-07-13T09:42:20;101711.69;;;20.69;61.66
46534;BME280;32260;52.008;4.752;2023-07-13T09:44:37;101718.53;;;20.39;62.58
46534;BME280;32260;52.008;4.752;2023-07-13T09:47:16;101716.94;;;20.34;63.19
46534;BME280;32260;52.008;4.752;2023-07-13T09:49:43;101716.22;;;20.12;63.56
46534;BME280;32260;52.008;4.752;2023-07-13T09:52:14;101718.72;;;20.16;62.92
46534;BME280;32260;52.008;4.752;2023-07-13T09:54:47;101720.88;;;20.27;62.33
46534;BME280;32260;52.008;4.752;2023-07-13T09:57:17;101728.22;;;20.24;61.82
46534;BME280;32260;52.008;4.752;2023-07-13T09:59:47;101726.41;;;20.24;61.89
46534;BME280;32260;52.008;4.752;2023-07-13T10:02:32;101730.50;;;20.33;62.18
46534;BME280;32260;52.008;4.752;2023-07-13T10:05:03;101719.84;;;20.30;62.30
46534;BME280;32260;52.008;4.752;2023-07-13T10:07:31;101742.25;;;20.49;62.80
46534;BME280;32260;52.008;4.752;2023-07-13T10:10:00;101729.13;;;20.62;63.59
46534;BME280;32260;52.008;4.752;2023-07-13T10:12:28;101734.28;;;20.86;63.51
46534;BME280;32260;52.008;4.752;2023-07-13T10:14:57;101728.75;;;21.07;62.36
46534;BME280;32260;52.008;4.752;2023-07-13T10:17:29;101722.75;;;21.37;62.77
46534;BME280;32260;52.008;4.752;2023-07-13T10:19:59;101728.13;;;21.54;61.43
46534;BME280;32260;52.008;4.752;2023-07-13T10:22:39;101730.53;;;21.60;60.00
46534;BME280;32260;52.008;4.752;2023-07-13T10:25:16;101717.53;;;21.69;59.54
46534;BME280;32260;52.008;4.752;2023-07-13T10:27:44;101738.94;;;21.72;60.18
46534;BME280;32260;52.008;4.752;2023-07-13T10:32:59;101736.72;;;21.80;58.93
46534;BME280;32260;52.008;4.752;2023-07-13T10:35:27;101737.25;;;21.87;58.00
46534;BME280;32260;52.008;4.752;2023-07-13T10:38:02;101732.38;;;22.11;57.98
46534;BME280;32260;52.008;4.752;2023-07-13T10:40:37;101737.53;;;22.32;58.02
46534;BME280;32260;52.008;4.752;2023-07-13T10:43:16;101736.97;;;22.42;57.10
46534;BME280;32260;52.008;4.752;2023-07-13T10:45:46;101743.25;;;22.59;56.21
46534;BME280;32260;52.008;4.752;2023-07-13T10:48:16;101743.34;;;22.57;55.82
46534;BME280;32260;52.008;4.752;2023-07-13T10:50:45;101749.44;;;22.77;55.31
46534;BME280;32260;52.008;4.752;2023-07-13T10:53:28;101751.00;;;22.81;54.26
46534;BME280;32260;52.008;4.752;2023-07-13T10:55:59;101742.44;;;22.73;54.41
46534;BME280;32260;52.008;4.752;2023-07-13T10:58:46;101752.91;;;22.47;55.48
46534;BME280;32260;52.008;4.752;2023-07-13T11:01:15;101761.16;;;22.10;56.66
46534;BME280;32260;52.008;4.752;2023-07-13T11:04:02;101757.00;;;22.05;57.00
46534;BME280;32260;52.008;4.752;2023-07-13T11:09:40;101742.88;;;22.16;55.78
46534;BME280;32260;52.008;4.752;2023-07-13T11:12:10;101751.28;;;22.27;53.60
46534;BME280;32260;52.008;4.752;2023-07-13T11:20:21;101756.50;;;22.80;50.47
46534;BME280;32260;52.008;4.752;2023-07-13T11:23:09;101743.50;;;22.86;50.00
46534;BME280;32260;52.008;4.752;2023-07-13T11:25:37;101747.94;;;23.03;50.72
46534;BME280;32260;52.008;4.752;2023-07-13T11:30:46;101748.69;;;23.21;49.29
46534;BME280;32260;52.008;4.752;2023-07-13T11:38:32;101754.25;;;23.34;48.68
46534;BME280;32260;52.008;4.752;2023-07-13T11:41:05;101753.84;;;23.56;49.09
46534;BME280;32260;52.008;4.752;2023-07-13T11:43:33;101746.31;;;23.62;47.62
46534;BME280;32260;52.008;4.752;2023-07-13T11:46:13;101757.94;;;23.78;46.76
46534;BME280;32260;52.008;4.752;2023-07-13T11:48:40;101759.69;;;23.79;48.04
46534;BME280;32260;52.008;4.752;2023-07-13T11:51:07;101768.75;;;23.78;45.21
46534;BME280;32260;52.008;4.752;2023-07-13T11:53:47;101759.97;;;23.74;45.21
46534;BME280;32260;52.008;4.752;2023-07-13T11:56:15;101770.13;;;23.85;45.91
46534;BME280;32260;52.008;4.752;2023-07-13T11:58:41;101771.56;;;23.77;45.40
46534;BME280;32260;52.008;4.752;2023-07-13T12:01:17;101773.81;;;23.99;45.42
46534;BME280;32260;52.008;4.752;2023-07-13T12:03:45;101763.69;;;24.02;44.93
46534;BME280;32260;52.008;4.752;2023-07-13T12:06:33;101765.91;;;24.25;45.34
46534;BME280;32260;52.008;4.752;2023-07-13T12:09:02;101760.59;;;24.23;45.29
46534;BME280;32260;52.008;4.752;2023-07-13T12:11:30;101769.88;;;24.33;44.29
46534;BME280;32260;52.008;4.752;2023-07-13T12:13:56;101766.50;;;24.30;44.57
46534;BME280;32260;52.008;4.752;2023-07-13T12:18:59;101764.00;;;24.27;44.15
46534;BME280;32260;52.008;4.752;2023-07-13T12:21:37;101753.91;;;24.43;43.27
46534;BME280;32260;52.008;4.752;2023-07-13T12:24:04;101757.50;;;24.44;43.73
46534;BME280;32260;52.008;4.752;2023-07-13T12:26:32;101758.94;;;24.49;42.41
46534;BME280;32260;52.008;4.752;2023-07-13T12:29:04;101758.34;;;24.73;42.25
46534;BME280;32260;52.008;4.752;2023-07-13T12:36:52;101776.88;;;24.94;42.10
46534;BME280;32260;52.008;4.752;2023-07-13T12:39:36;101764.31;;;24.78;42.20
46534;BME280;32260;52.008;4.752;2023-07-13T12:42:24;101775.00;;;24.52;40.90
46534;BME280;32260;52.008;4.752;2023-07-13T12:44:58;101771.69;;;24.62;41.96
46534;BME280;32260;52.008;4.752;2023-07-13T12:47:25;101761.25;;;24.70;42.61
46534;BME280;32260;52.008;4.752;2023-07-13T12:49:56;101767.09;;;24.91;42.95
46534;BME280;32260;52.008;4.752;2023-07-13T12:52:32;101757.81;;;25.08;41.17
46534;BME280;32260;52.008;4.752;2023-07-13T12:55:07;101756.66;;;25.12;41.68
46534;BME280;32260;52.008;4.752;2023-07-13T12:57:41;101757.63;;;25.11;40.44
46534;BME280;32260;52.008;4.752;2023-07-13T13:00:24;101777.69;;;25.36;42.23
46534;BME280;32260;52.008;4.752;2023-07-13T13:02:52;101766.47;;;25.28;40.78
46534;BME280;32260;52.008;4.752;2023-07-13T13:05:19;101768.09;;;25.30;40.82
46534;BME280;32260;52.008;4.752;2023-07-13T13:07:49;101760.81;;;25.58;41.42
46534;BME280;32260;52.008;4.752;2023-07-13T13:10:16;101763.19;;;25.63;40.86
46534;BME280;32260;52.008;4.752;2023-07-13T13:12:42;101764.41;;;25.72;40.04
46534;BME280;32260;52.008;4.752;2023-07-13T13:15:10;101774.41;;;25.71;41.12
46534;BME280;32260;52.008;4.752;2023-07-13T13:17:38;101774.16;;;25.48;40.12
46534;BME280;32260;52.008;4.752;2023-07-13T13:20:15;101770.72;;;25.72;40.09
46534;BME280;32260;52.008;4.752;2023-07-13T13:22:42;101769.84;;;25.72;41.36
46534;BME280;32260;52.008;4.752;2023-07-13T13:25:12;101760.06;;;25.82;40.66
46534;BME280;32260;52.008;4.752;2023-07-13T13:27:41;101777.56;;;25.91;39.93
46534;BME280;32260;52.008;4.752;2023-07-13T13:30:12;101761.59;;;25.86;38.65
46534;BME280;32260;52.008;4.752;2023-07-13T13:32:40;101770.06;;;25.94;38.63
46534;BME280;32260;52.008;4.752;2023-07-13T13:35:14;101776.13;;;25.98;38.52
46534;BME280;32260;52.008;4.752;2023-07-13T13:37:41;101771.84;;;26.08;39.31
46534;BME280;32260;52.008;4.752;2023-07-13T13:42:51;101781.50;;;26.12;39.20
46534;BME280;32260;52.008;4.752;2023-07-13T13:45:19;101776.16;;;26.24;38.40
46534;BME280;32260;52.008;4.752;2023-07-13T13:47:47;101783.09;;;26.28;38.47